createdAt,value
2019-05-30T00:00:05.868Z,8.59
2019-05-30T00:01:51.661Z,8.63
2019-05-30T00:02:51.639Z,8.56
2019-05-30T00:03:51.617Z,8.53
2019-05-30T00:04:51.597Z,8.52
2019-05-30T00:05:51.583Z,8.55
2019-05-30T00:06:51.553Z,8.58
2019-05-30T00:07:51.542Z,8.59
2019-05-30T00:08:51.519Z,8.43
2019-05-30T00:09:51.489Z,8.52
2019-05-30T00:10:51.469Z,8.53
2019-05-30T00:11:51.450Z,8.37
2019-05-30T00:12:51.426Z,8.43
2019-05-30T00:13:51.409Z,8.37
2019-05-30T00:14:51.387Z,8.41
2019-05-30T00:15:51.363Z,8.38
2019-05-30T00:16:51.351Z,8.34
2019-05-30T00:17:51.319Z,8.25
2019-05-30T00:18:51.301Z,8.22
2019-05-30T00:19:51.279Z,8.25
2019-05-30T00:20:51.261Z,8.29
2019-05-30T00:21:51.233Z,8.28
2019-05-30T00:22:51.215Z,8.28
2019-05-30T00:23:51.185Z,8.28
2019-05-30T00:24:51.172Z,8.28
2019-05-30T00:25:51.143Z,8.25
2019-05-30T00:26:51.133Z,8.26
2019-05-30T00:27:51.107Z,8.25
2019-05-30T00:28:51.090Z,8.29
2019-05-30T00:29:51.063Z,8.26
2019-05-30T00:30:51.101Z,8.25
2019-05-30T00:31:51.020Z,8.20
2019-05-30T00:32:51.003Z,8.12
2019-05-30T00:33:51.005Z,8.12
2019-05-30T00:34:50.957Z,8.16
2019-05-30T00:35:50.941Z,8.08
2019-05-30T00:36:50.912Z,7.97
2019-05-30T00:37:50.893Z,8.07
2019-05-30T00:38:50.868Z,8.07
2019-05-30T00:39:50.848Z,8.01
2019-05-30T00:40:50.838Z,7.89
2019-05-30T00:41:50.804Z,8.01
2019-05-30T00:42:50.785Z,7.85
2019-05-30T00:43:50.766Z,7.86
2019-05-30T00:44:50.744Z,7.87
2019-05-30T00:45:50.721Z,7.82
2019-05-30T00:46:50.710Z,7.85
2019-05-30T00:47:50.678Z,7.86
2019-05-30T00:48:51.011Z,7.75
2019-05-30T00:49:50.667Z,7.71
2019-05-30T00:50:50.613Z,7.71
2019-05-30T00:51:50.616Z,7.64
2019-05-30T00:52:50.572Z,7.63
2019-05-30T00:53:50.548Z,7.61
2019-05-30T00:54:50.525Z,7.60
2019-05-30T00:55:50.504Z,7.60
2019-05-30T00:56:50.487Z,7.55
2019-05-30T00:57:50.460Z,7.50
2019-05-30T00:58:50.443Z,7.50
2019-05-30T00:59:50.423Z,7.50
2019-05-30T01:00:50.401Z,7.46
2019-05-30T01:01:50.378Z,7.53
2019-05-30T01:02:50.422Z,7.50
2019-05-30T01:03:50.330Z,7.49
2019-05-30T01:04:50.306Z,7.53
2019-05-30T01:05:50.306Z,7.52
2019-05-30T01:06:50.277Z,7.52
2019-05-30T01:07:50.246Z,7.57
2019-05-30T01:08:50.224Z,7.49
2019-05-30T01:09:50.202Z,7.48
2019-05-30T01:10:50.185Z,7.49
2019-05-30T01:11:50.158Z,7.48
2019-05-30T01:12:50.140Z,7.52
2019-05-30T01:13:50.118Z,7.50
2019-05-30T01:14:50.095Z,7.46
2019-05-30T01:15:50.071Z,7.43
2019-05-30T01:16:50.048Z,7.50
2019-05-30T01:17:50.031Z,7.52
2019-05-30T01:18:50.006Z,7.49
2019-05-30T01:19:49.983Z,7.50
2019-05-30T01:20:49.964Z,7.48
2019-05-30T01:21:49.943Z,7.50
2019-05-30T01:22:49.922Z,7.46
2019-05-30T01:23:49.904Z,7.53
2019-05-30T01:24:49.874Z,7.52
2019-05-30T01:25:49.857Z,7.49
2019-05-30T01:26:49.831Z,7.53
2019-05-30T01:27:49.815Z,7.53
2019-05-30T01:28:49.790Z,7.43
2019-05-30T01:29:49.766Z,7.53
2019-05-30T01:30:59.512Z,7.55
2019-05-30T01:31:49.722Z,7.55
2019-05-30T01:32:49.706Z,7.53
2019-05-30T01:33:49.680Z,7.49
2019-05-30T01:34:49.659Z,7.53
2019-05-30T01:35:49.640Z,7.48
2019-05-30T01:36:49.614Z,7.46
2019-05-30T01:37:49.593Z,7.49
2019-05-30T01:38:49.575Z,7.55
2019-05-30T01:39:49.567Z,7.49
2019-05-30T01:40:49.525Z,7.46
2019-05-30T01:41:49.508Z,7.40
2019-05-30T01:42:49.484Z,7.37
2019-05-30T01:43:49.465Z,7.32
2019-05-30T01:44:49.440Z,7.35
2019-05-30T01:45:49.417Z,7.42
2019-05-30T01:46:49.395Z,7.31
2019-05-30T01:47:49.374Z,7.40
2019-05-30T01:48:49.351Z,7.35
2019-05-30T01:49:49.327Z,7.42
2019-05-30T01:50:49.311Z,7.32
2019-05-30T01:51:49.288Z,7.32
2019-05-30T01:52:49.268Z,7.24
2019-05-30T01:53:49.247Z,7.34
2019-05-30T01:54:49.219Z,7.24
2019-05-30T01:55:49.200Z,7.30
2019-05-30T01:56:49.177Z,7.34
2019-05-30T01:57:49.157Z,7.28
2019-05-30T01:58:49.141Z,7.25
2019-05-30T01:59:49.113Z,7.17
2019-05-30T02:00:49.090Z,7.25
2019-05-30T02:01:49.073Z,7.28
2019-05-30T02:02:49.047Z,7.23
2019-05-30T02:03:49.024Z,7.25
2019-05-30T02:04:49.071Z,7.24
2019-05-30T02:05:48.982Z,7.21
2019-05-30T02:06:48.966Z,7.17
2019-05-30T02:07:48.939Z,7.21
2019-05-30T02:08:48.922Z,7.13
2019-05-30T02:09:48.899Z,7.13
2019-05-30T02:10:48.882Z,7.07
2019-05-30T02:11:48.853Z,7.10
2019-05-30T02:12:48.832Z,7.12
2019-05-30T02:13:48.805Z,7.09
2019-05-30T02:14:48.783Z,7.13
2019-05-30T02:15:48.770Z,7.10
2019-05-30T02:16:48.752Z,7.10
2019-05-30T02:17:48.724Z,7.12
2019-05-30T02:18:48.700Z,7.09
2019-05-30T02:19:48.679Z,7.12
2019-05-30T02:20:48.655Z,7.03
2019-05-30T02:21:48.631Z,7.06
2019-05-30T02:22:48.610Z,6.95
2019-05-30T02:23:48.593Z,6.99
2019-05-30T02:24:48.570Z,6.87
2019-05-30T02:25:48.546Z,6.84
2019-05-30T02:26:48.527Z,6.91
2019-05-30T02:27:48.505Z,6.91
2019-05-30T02:28:48.480Z,6.79
2019-05-30T02:29:48.458Z,6.88
2019-05-30T02:30:48.437Z,6.91
2019-05-30T02:31:48.413Z,6.88
2019-05-30T02:32:48.398Z,6.88
2019-05-30T02:33:48.391Z,6.77
2019-05-30T02:34:48.351Z,6.73
2019-05-30T02:35:48.334Z,6.71
2019-05-30T02:36:48.305Z,6.73
2019-05-30T02:37:48.285Z,6.77
2019-05-30T02:38:48.258Z,6.79
2019-05-30T02:39:48.252Z,6.74
2019-05-30T02:40:48.216Z,6.70
2019-05-30T02:41:48.200Z,6.77
2019-05-30T02:42:48.175Z,6.69
2019-05-30T02:43:48.158Z,6.70
2019-05-30T02:44:48.134Z,6.74
2019-05-30T02:45:48.107Z,6.69
2019-05-30T02:46:48.086Z,6.71
2019-05-30T02:47:48.066Z,6.70
2019-05-30T02:48:58.687Z,6.59
2019-05-30T02:49:48.020Z,6.73
2019-05-30T02:50:48.000Z,6.73
2019-05-30T02:51:47.974Z,6.69
2019-05-30T02:52:47.964Z,6.62
2019-05-30T02:53:47.946Z,6.73
2019-05-30T02:54:47.909Z,6.70
2019-05-30T02:55:47.890Z,6.71
2019-05-30T02:56:47.870Z,6.62
2019-05-30T02:57:47.840Z,6.59
2019-05-30T02:58:47.818Z,6.71
2019-05-30T02:59:47.798Z,6.76
2019-05-30T03:00:47.783Z,6.66
2019-05-30T03:02:00.829Z,6.62
2019-05-30T03:02:47.733Z,6.67
2019-05-30T03:03:47.710Z,6.69
2019-05-30T03:04:47.691Z,6.64
2019-05-30T03:05:47.667Z,6.59
2019-05-30T03:06:47.647Z,6.76
2019-05-30T03:07:47.630Z,6.61
2019-05-30T03:08:47.598Z,6.61
2019-05-30T03:09:47.579Z,6.56
2019-05-30T03:10:47.560Z,6.62
2019-05-30T03:11:47.539Z,6.64
2019-05-30T03:12:47.509Z,6.55
2019-05-30T03:13:47.493Z,6.58
2019-05-30T03:14:47.473Z,6.69
2019-05-30T03:15:47.451Z,6.55
2019-05-30T03:16:47.427Z,6.54
2019-05-30T03:17:47.404Z,6.56
2019-05-30T03:18:47.377Z,6.55
2019-05-30T03:19:47.368Z,6.58
2019-05-30T03:20:47.338Z,6.58
2019-05-30T03:21:47.318Z,6.51
2019-05-30T03:22:47.333Z,6.56
2019-05-30T03:23:47.273Z,6.61
2019-05-30T03:24:47.251Z,6.56
2019-05-30T03:25:47.223Z,6.59
2019-05-30T03:26:47.204Z,6.59
2019-05-30T03:27:47.186Z,6.55
2019-05-30T03:28:47.156Z,6.67
2019-05-30T03:29:47.138Z,6.58
2019-05-30T03:30:47.125Z,6.54
2019-05-30T03:31:47.113Z,6.54
2019-05-30T03:33:05.770Z,6.56
2019-05-30T03:33:47.051Z,6.62
2019-05-30T03:34:47.050Z,6.56
2019-05-30T03:35:47.161Z,6.54
2019-05-30T03:36:46.987Z,6.62
2019-05-30T03:37:46.963Z,6.62
2019-05-30T03:38:46.941Z,6.56
2019-05-30T03:39:46.917Z,6.55
2019-05-30T03:40:46.894Z,6.58
2019-05-30T03:41:46.875Z,6.73
2019-05-30T03:42:46.852Z,6.74
2019-05-30T03:43:46.828Z,6.71
2019-05-30T03:44:46.811Z,6.88
2019-05-30T03:45:46.785Z,6.87
2019-05-30T03:46:46.773Z,6.89
2019-05-30T03:47:46.738Z,6.84
2019-05-30T03:48:46.739Z,6.98
2019-05-30T03:49:46.709Z,6.94
2019-05-30T03:50:46.772Z,7.05
2019-05-30T03:51:46.661Z,6.99
2019-05-30T03:53:49.639Z,7.07
2019-05-30T03:56:04.551Z,7.10
2019-05-30T03:57:01.754Z,7.10
2019-05-30T03:58:41.634Z,7.10
2019-05-30T03:59:41.609Z,7.15
2019-05-30T04:00:41.593Z,7.24
2019-05-30T04:01:41.567Z,7.17
2019-05-30T04:02:56.410Z,7.21
2019-05-30T04:03:41.521Z,7.31
2019-05-30T04:04:41.503Z,7.20
2019-05-30T04:05:41.478Z,7.34
2019-05-30T04:06:41.464Z,7.25
2019-05-30T04:07:41.434Z,7.34
2019-05-30T04:08:41.418Z,7.39
2019-05-30T04:09:44.073Z,7.35
2019-05-30T04:10:41.371Z,7.37
2019-05-30T04:11:41.350Z,7.52
2019-05-30T04:13:23.847Z,7.50
2019-05-30T04:14:23.823Z,7.55
2019-05-30T04:15:23.805Z,7.49
2019-05-30T04:16:23.785Z,7.50
2019-05-30T04:17:23.764Z,7.55
2019-05-30T04:18:23.738Z,7.57
2019-05-30T04:19:23.720Z,7.72
2019-05-30T04:20:23.695Z,7.68
2019-05-30T04:21:23.677Z,7.71
2019-05-30T04:22:23.803Z,7.74
2019-05-30T04:23:24.035Z,7.82
2019-05-30T04:24:23.608Z,7.83
2019-05-30T04:25:23.591Z,7.83
2019-05-30T04:26:23.568Z,7.82
2019-05-30T04:27:26.175Z,8.00
2019-05-30T04:28:23.523Z,7.95
2019-05-30T04:29:23.508Z,7.95
2019-05-30T04:30:23.482Z,8.10
2019-05-30T04:31:23.462Z,8.11
2019-05-30T04:32:23.437Z,8.15
2019-05-30T04:33:32.677Z,8.10
2019-05-30T04:34:23.395Z,8.23
2019-05-30T04:35:23.376Z,8.23
2019-05-30T04:36:23.354Z,8.28
2019-05-30T04:37:23.341Z,8.36
2019-05-30T04:38:23.313Z,8.36
2019-05-30T04:39:23.286Z,8.43
2019-05-30T04:40:23.267Z,8.40
2019-05-30T04:41:23.248Z,8.47
2019-05-30T04:42:23.223Z,8.50
2019-05-30T04:43:23.202Z,8.56
2019-05-30T04:44:23.183Z,8.63
2019-05-30T04:45:27.685Z,8.73
2019-05-30T04:46:23.144Z,8.77
2019-05-30T04:47:23.121Z,8.89
2019-05-30T04:48:23.093Z,8.83
2019-05-30T04:49:23.071Z,8.83
2019-05-30T04:50:23.053Z,8.94
2019-05-30T04:51:23.034Z,8.94
2019-05-30T04:52:24.929Z,9.10
2019-05-30T04:53:22.995Z,9.14
2019-05-30T04:54:22.964Z,9.24
2019-05-30T04:55:23.266Z,9.23
2019-05-30T04:56:22.925Z,9.31
2019-05-30T04:57:27.017Z,9.43
2019-05-30T04:58:24.404Z,9.40
2019-05-30T04:59:22.858Z,9.38
2019-05-30T05:00:22.841Z,9.51
2019-05-30T05:01:22.811Z,9.61
2019-05-30T05:02:23.389Z,9.58
2019-05-30T05:03:43.464Z,9.64
2019-05-30T05:04:22.747Z,9.65
2019-05-30T05:05:26.740Z,9.87
2019-05-30T05:06:22.706Z,9.83
2019-05-30T05:07:22.682Z,9.86
2019-05-30T05:08:22.675Z,9.90
2019-05-30T05:09:22.644Z,10.02
2019-05-30T05:10:22.699Z,10.14
2019-05-30T05:11:25.109Z,10.18
2019-05-30T05:12:22.573Z,10.15
2019-05-30T05:13:22.732Z,10.25
2019-05-30T05:14:22.822Z,10.27
2019-05-30T05:15:22.850Z,10.45
2019-05-30T05:16:34.494Z,10.44
2019-05-30T05:17:23.137Z,10.63
2019-05-30T05:18:23.440Z,10.70
2019-05-30T05:19:25.672Z,10.66
2019-05-30T05:20:23.502Z,10.73
2019-05-30T05:21:23.100Z,10.89
2019-05-30T05:22:23.367Z,10.89
2019-05-30T05:23:23.409Z,11.00
2019-05-30T05:24:23.530Z,11.02
2019-05-30T05:25:23.513Z,11.00
2019-05-30T05:26:22.278Z,11.15
2019-05-30T05:27:22.253Z,11.17
2019-05-30T05:28:22.241Z,11.19
2019-05-30T05:29:22.214Z,11.27
2019-05-30T05:30:22.489Z,11.35
2019-05-30T05:31:22.492Z,11.42
2019-05-30T05:32:22.629Z,11.44
2019-05-30T05:33:22.660Z,11.46
2019-05-30T05:34:22.775Z,11.65
2019-05-30T05:35:23.027Z,11.67
2019-05-30T05:36:23.073Z,11.76
2019-05-30T05:37:23.238Z,11.83
2019-05-30T05:38:22.417Z,11.76
2019-05-30T05:39:22.318Z,11.82
2019-05-30T05:40:22.442Z,11.90
2019-05-30T05:41:22.295Z,11.98
2019-05-30T05:42:22.498Z,12.04
2019-05-30T05:43:22.466Z,12.07
2019-05-30T05:44:22.467Z,12.16
2019-05-30T05:45:22.805Z,12.21
2019-05-30T05:46:22.572Z,12.37
2019-05-30T05:47:22.794Z,12.34
2019-05-30T05:48:22.588Z,12.42
2019-05-30T05:49:22.610Z,12.42
2019-05-30T05:50:22.563Z,12.46
2019-05-30T05:51:22.780Z,12.54
2019-05-30T05:52:22.744Z,12.57
2019-05-30T05:53:22.949Z,12.67
2019-05-30T05:54:22.900Z,12.68
2019-05-30T05:55:22.845Z,12.75
2019-05-30T05:56:22.823Z,12.85
2019-05-30T05:57:22.846Z,12.83
2019-05-30T05:58:23.716Z,12.79
2019-05-30T05:59:21.584Z,12.87
2019-05-30T06:00:21.556Z,12.87
2019-05-30T06:01:21.595Z,12.95
2019-05-30T06:02:21.516Z,13.01
2019-05-30T06:03:22.242Z,13.11
2019-05-30T06:04:21.476Z,13.10
2019-05-30T06:05:22.265Z,13.25
2019-05-30T06:06:21.437Z,13.39
2019-05-30T06:07:22.415Z,13.30
2019-05-30T06:08:21.566Z,13.41
2019-05-30T06:09:22.503Z,13.48
2019-05-30T06:10:21.800Z,13.55
2019-05-30T06:11:22.620Z,13.59
2019-05-30T06:12:21.751Z,13.59
2019-05-30T06:13:21.289Z,13.70
2019-05-30T06:14:21.920Z,13.78
2019-05-30T06:15:21.256Z,13.84
2019-05-30T06:16:21.987Z,13.78
2019-05-30T06:18:33.803Z,13.91
2019-05-30T06:19:45.873Z,14.00
2019-05-30T06:20:33.757Z,14.03
2019-05-30T06:21:33.744Z,14.09
2019-05-30T06:22:33.716Z,14.12
2019-05-30T06:23:33.724Z,14.17
2019-05-30T06:24:33.675Z,14.18
2019-05-30T06:25:33.657Z,14.22
2019-05-30T06:26:33.650Z,14.25
2019-05-30T06:27:33.614Z,14.27
2019-05-30T06:28:33.596Z,14.45
2019-05-30T06:29:33.577Z,14.43
2019-05-30T06:30:33.565Z,14.36
2019-05-30T06:31:33.535Z,14.51
2019-05-30T06:32:33.519Z,14.47
2019-05-30T06:33:33.496Z,14.52
2019-05-30T06:34:39.167Z,14.61
2019-05-30T06:35:33.458Z,14.57
2019-05-30T06:36:33.441Z,14.60
2019-05-30T06:37:33.419Z,14.72
2019-05-30T06:38:33.407Z,14.73
2019-05-30T06:39:33.387Z,14.86
2019-05-30T06:40:33.365Z,14.92
2019-05-30T06:41:33.343Z,14.99
2019-05-30T06:42:33.320Z,15.06
2019-05-30T06:43:33.302Z,15.10
2019-05-30T06:44:33.281Z,15.19
2019-05-30T06:45:33.259Z,15.25
2019-05-30T06:50:52.317Z,15.39
2019-05-30T06:51:52.300Z,15.56
2019-05-30T06:52:52.284Z,15.53
2019-05-30T06:56:36.142Z,15.67
2019-05-30T06:58:47.896Z,15.80
2019-05-30T07:32:34.455Z,17.84
2019-05-30T07:53:37.367Z,22.60
2019-05-30T07:54:37.354Z,22.82
2019-05-30T07:58:08.354Z,23.68
2019-05-30T07:59:08.332Z,23.88
2019-05-30T08:00:08.317Z,23.58
2019-05-30T08:01:08.304Z,23.88
2019-05-30T08:02:08.288Z,23.83
2019-05-30T08:03:08.270Z,23.97
2019-05-30T08:04:08.260Z,24.09
2019-05-30T08:06:35.879Z,24.64
2019-05-30T08:08:23.413Z,25.43
2019-05-30T08:09:23.402Z,25.65
2019-05-30T08:10:23.389Z,25.92
2019-05-30T08:13:06.674Z,26.32
2019-05-30T08:14:06.661Z,26.28
2019-05-30T08:15:06.651Z,26.13
2019-05-30T08:16:06.644Z,26.01
2019-05-30T08:17:06.633Z,26.15
2019-05-30T08:18:06.626Z,26.23
2019-05-30T08:19:06.617Z,25.92
2019-05-30T08:20:06.602Z,26.26
2019-05-30T08:21:06.906Z,26.48
2019-05-30T08:22:06.593Z,26.60
2019-05-30T08:23:09.696Z,26.75
2019-05-30T08:24:06.576Z,26.92
2019-05-30T08:27:47.637Z,27.46
2019-05-30T08:28:47.660Z,27.72
2019-05-30T08:29:47.623Z,27.75
2019-05-30T08:30:47.620Z,27.79
2019-05-30T08:31:47.613Z,28.04
2019-05-30T08:32:47.607Z,28.14
2019-05-30T08:33:47.647Z,28.17
2019-05-30T08:39:31.571Z,28.07
2019-05-30T08:50:23.531Z,28.78
2019-05-30T08:51:23.524Z,28.54
2019-05-30T08:53:23.520Z,28.46
2019-05-30T08:54:23.519Z,28.43
2019-05-30T08:55:23.516Z,28.12
2019-05-30T08:56:23.516Z,28.04
2019-05-30T08:57:23.517Z,27.75
2019-05-30T08:58:23.515Z,27.63
2019-05-30T08:59:23.512Z,27.47
2019-05-30T09:00:23.511Z,27.29
2019-05-30T09:02:23.507Z,27.09
2019-05-30T09:03:23.512Z,27.04
2019-05-30T09:15:15.259Z,27.87
2019-05-30T09:16:15.260Z,27.62
2019-05-30T09:17:15.252Z,27.81
2019-05-30T09:18:15.249Z,28.14
2019-05-30T09:19:15.252Z,28.22
2019-05-30T09:20:15.258Z,28.06
2019-05-30T09:21:15.248Z,27.34
2019-05-30T09:22:15.247Z,27.41
2019-05-30T09:23:15.249Z,27.34
2019-05-30T09:24:15.247Z,27.32
2019-05-30T09:25:15.249Z,27.50
2019-05-30T09:26:15.248Z,27.37
2019-05-30T09:27:15.249Z,27.32
2019-05-30T09:28:15.252Z,27.51
2019-05-30T09:29:15.261Z,27.85
2019-05-30T09:30:15.456Z,28.03
2019-05-30T09:36:25.186Z,28.09
2019-05-30T09:37:25.182Z,27.67
2019-05-30T09:38:25.186Z,27.63
2019-05-30T09:39:25.189Z,28.00
2019-05-30T09:40:25.182Z,28.27
2019-05-30T09:41:25.184Z,28.22
2019-05-30T09:42:25.182Z,28.14
2019-05-30T09:43:25.184Z,28.00
2019-05-30T09:44:25.186Z,27.77
2019-05-30T09:45:25.186Z,27.49
2019-05-30T09:46:25.186Z,27.29
2019-05-30T09:47:25.186Z,27.24
2019-05-30T09:48:25.186Z,27.17
2019-05-30T09:49:25.188Z,27.21
2019-05-30T09:50:25.194Z,27.40
2019-05-30T09:51:25.188Z,27.57
2019-05-30T09:52:25.196Z,27.67
2019-05-30T09:53:25.188Z,27.78
2019-05-30T09:54:25.190Z,27.82
2019-05-30T09:55:25.191Z,28.03
2019-05-30T09:56:25.186Z,28.21
2019-05-30T09:57:25.192Z,28.24
2019-05-30T09:58:25.189Z,28.36
2019-05-30T09:59:25.191Z,28.44
2019-05-30T10:00:25.194Z,28.22
2019-05-30T10:01:25.190Z,28.24
2019-05-30T10:02:25.194Z,28.39
2019-05-30T10:03:25.195Z,28.46
2019-05-30T10:04:25.235Z,28.66
2019-05-30T10:05:25.207Z,28.74
2019-05-30T10:06:29.417Z,28.61
2019-05-30T10:07:25.206Z,28.49
2019-05-30T10:08:25.195Z,28.62
2019-05-30T10:09:25.199Z,28.92
2019-05-30T10:10:25.196Z,28.95
2019-05-30T10:11:25.528Z,29.02
2019-05-30T10:12:25.197Z,29.16
2019-05-30T10:13:25.200Z,29.33
2019-05-30T10:14:25.198Z,29.31
2019-05-30T10:15:25.203Z,29.60
2019-05-30T10:16:25.204Z,29.65
2019-05-30T10:17:25.203Z,29.89
2019-05-30T10:18:25.202Z,30.15
2019-05-30T10:19:25.203Z,30.42
2019-05-30T10:20:25.211Z,30.47
2019-05-30T10:21:25.203Z,30.65
2019-05-30T10:22:25.204Z,30.65
2019-05-30T10:23:25.204Z,30.79
2019-05-30T10:24:25.203Z,31.29
2019-05-30T10:25:25.255Z,31.48
2019-05-30T10:26:25.208Z,31.44
2019-05-30T10:27:25.208Z,31.36
2019-05-30T10:28:25.211Z,31.25
2019-05-30T10:29:25.269Z,31.51
2019-05-30T10:30:25.214Z,31.32
2019-05-30T10:31:25.213Z,31.32
2019-05-30T10:32:25.218Z,31.39
2019-05-30T10:33:25.213Z,31.28
2019-05-30T10:34:25.224Z,31.34
2019-05-30T10:35:25.250Z,31.39
2019-05-30T10:36:25.223Z,31.36
2019-05-30T10:37:25.222Z,31.48
2019-05-30T10:38:25.235Z,31.62
2019-05-30T10:39:25.229Z,31.68
2019-05-30T10:40:25.222Z,31.89
2019-05-30T10:41:25.222Z,32.21
2019-05-30T10:43:12.981Z,32.72
2019-05-30T10:44:12.975Z,32.97
2019-05-30T10:45:12.997Z,33.50
2019-05-30T10:46:16.226Z,33.69
2019-05-30T10:47:13.017Z,33.65
2019-05-30T10:48:13.033Z,33.45
2019-05-30T10:49:12.987Z,33.32
2019-05-30T10:50:12.985Z,33.54
2019-05-30T10:51:12.993Z,33.38
2019-05-30T10:52:12.989Z,33.47
2019-05-30T10:53:12.991Z,33.39
2019-05-30T10:54:12.995Z,33.47
2019-05-30T10:55:12.993Z,33.37
2019-05-30T10:56:12.995Z,33.37
2019-05-30T10:57:12.997Z,33.50
2019-05-30T11:01:39.640Z,34.10
2019-05-30T11:02:39.641Z,34.13
2019-05-30T11:03:39.642Z,34.32
2019-05-30T11:04:39.641Z,34.06
2019-05-30T11:05:39.647Z,33.71
2019-05-30T11:06:39.647Z,33.31
2019-05-30T11:07:53.231Z,33.09
2019-05-30T11:08:39.649Z,33.23
2019-05-30T11:09:39.646Z,33.29
2019-05-30T11:10:39.661Z,33.19
2019-05-30T11:11:39.673Z,33.47
2019-05-30T11:12:39.659Z,33.51
2019-05-30T11:13:39.658Z,33.53
2019-05-30T11:14:39.658Z,33.16
2019-05-30T11:15:39.666Z,32.85
2019-05-30T11:16:39.665Z,32.69
2019-05-30T11:17:39.669Z,32.70
2019-05-30T11:18:39.667Z,32.85
2019-05-30T11:19:39.673Z,33.26
2019-05-30T11:20:39.674Z,33.31
2019-05-30T11:21:39.674Z,33.15
2019-05-30T11:22:39.685Z,32.94
2019-05-30T11:23:39.691Z,33.18
2019-05-30T11:24:39.683Z,33.49
2019-05-30T11:25:39.689Z,33.37
2019-05-30T11:26:39.686Z,32.93
2019-05-30T11:27:39.688Z,32.60
2019-05-30T11:28:39.694Z,32.52
2019-05-30T11:29:39.695Z,32.56
2019-05-30T11:30:39.702Z,32.77
2019-05-30T11:31:39.699Z,32.51
2019-05-30T11:32:39.718Z,32.44
2019-05-30T11:33:39.723Z,32.08
2019-05-30T11:34:39.706Z,32.06
2019-05-30T11:35:39.707Z,32.04
2019-05-30T11:36:39.711Z,32.08
2019-05-30T11:37:39.710Z,32.14
2019-05-30T11:38:39.717Z,32.43
2019-05-30T11:39:39.719Z,32.32
2019-05-30T11:40:39.719Z,32.35
2019-05-30T11:41:39.717Z,32.56
2019-05-30T11:42:39.718Z,32.67
2019-05-30T11:43:39.721Z,32.66
2019-05-30T11:44:39.725Z,32.57
2019-05-30T11:45:39.725Z,32.04
2019-05-30T11:46:39.727Z,31.80
2019-05-30T11:47:39.731Z,32.06
2019-05-30T11:48:39.731Z,32.13
2019-05-30T11:49:39.737Z,31.84
2019-05-30T11:50:39.736Z,31.62
2019-05-30T11:51:39.735Z,31.48
2019-05-30T11:52:39.741Z,31.70
2019-05-30T11:53:39.738Z,31.65
2019-05-30T11:54:39.741Z,31.70
2019-05-30T11:55:39.744Z,31.65
2019-05-30T11:56:39.745Z,31.86
2019-05-30T11:57:39.743Z,32.04
2019-05-30T11:58:39.749Z,32.22
2019-05-30T11:59:39.753Z,32.59
2019-05-30T12:00:39.751Z,32.88
2019-05-30T12:01:39.752Z,33.00
2019-05-30T12:02:39.751Z,33.09
2019-05-30T12:03:39.763Z,33.18
2019-05-30T12:04:39.755Z,33.32
2019-05-30T12:05:39.766Z,33.29
2019-05-30T12:06:39.757Z,33.63
2019-05-30T12:07:39.760Z,34.08
2019-05-30T12:08:39.758Z,34.35
2019-05-30T12:09:39.757Z,34.17
2019-05-30T12:10:39.765Z,33.78
2019-05-30T12:11:39.765Z,33.16
2019-05-30T12:12:39.766Z,33.07
2019-05-30T12:13:39.772Z,33.06
2019-05-30T12:14:39.762Z,32.57
2019-05-30T12:15:39.767Z,32.26
2019-05-30T12:16:39.764Z,32.15
2019-05-30T12:17:39.762Z,32.10
2019-05-30T12:18:39.762Z,32.40
2019-05-30T12:19:39.762Z,32.30
2019-05-30T12:20:39.767Z,32.30
2019-05-30T12:21:39.766Z,32.43
2019-05-30T12:22:39.769Z,32.22
2019-05-30T12:23:39.771Z,31.72
2019-05-30T12:24:39.798Z,31.23
2019-05-30T12:25:39.764Z,31.26
2019-05-30T12:26:39.778Z,31.23
2019-05-30T12:27:39.764Z,31.26
2019-05-30T12:30:23.058Z,32.32
2019-05-30T12:31:23.062Z,32.72
2019-05-30T12:32:23.066Z,33.23
2019-05-30T12:33:23.068Z,33.82
2019-05-30T12:37:29.215Z,33.91
2019-05-30T12:38:29.193Z,34.16
2019-05-30T12:39:29.193Z,33.87
2019-05-30T12:40:29.194Z,33.32
2019-05-30T12:41:29.186Z,32.19
2019-05-30T12:42:29.187Z,31.76
2019-05-30T12:43:29.188Z,31.53
2019-05-30T12:44:30.196Z,31.25
2019-05-30T12:45:29.183Z,30.64
2019-05-30T12:51:39.116Z,29.65
2019-05-30T12:52:39.149Z,29.34
2019-05-30T12:53:39.116Z,29.31
2019-05-30T12:54:39.114Z,29.30
2019-05-30T12:55:39.106Z,29.49
2019-05-30T12:56:39.104Z,29.63
2019-05-30T12:57:39.104Z,29.58
2019-05-30T12:58:39.142Z,29.64
2019-05-30T12:59:39.102Z,29.67
2019-05-30T13:00:39.102Z,29.45
2019-05-30T13:01:39.098Z,29.31
2019-05-30T13:02:39.095Z,29.33
2019-05-30T13:03:39.098Z,29.34
2019-05-30T13:04:39.092Z,29.16
2019-05-30T13:05:39.085Z,29.09
2019-05-30T13:06:39.087Z,29.04
2019-05-30T13:07:39.082Z,28.90
2019-05-30T13:08:39.078Z,28.80
2019-05-30T13:12:50.003Z,27.97
2019-05-30T13:13:49.997Z,28.04
2019-05-30T13:14:49.997Z,28.06
2019-05-30T13:15:49.990Z,28.04
2019-05-30T13:16:49.984Z,28.06
2019-05-30T13:21:59.283Z,27.43
2019-05-30T13:22:59.125Z,27.43
2019-05-30T13:23:59.595Z,27.40
2019-05-30T13:24:59.693Z,27.36
2019-05-30T13:25:59.571Z,27.27
2019-05-30T13:26:59.667Z,27.36
2019-05-30T13:28:02.985Z,27.31
2019-05-30T13:29:00.299Z,27.39
2019-05-30T13:29:59.966Z,27.41
2019-05-30T13:31:00.230Z,27.41
2019-05-30T13:32:00.394Z,27.37
2019-05-30T13:32:59.063Z,27.36
2019-05-30T13:33:59.060Z,27.24
2019-05-30T13:34:59.246Z,27.31
2019-05-30T13:35:59.050Z,27.34
2019-05-30T13:46:27.499Z,26.95
2019-05-30T13:47:24.879Z,26.92
2019-05-30T13:48:24.866Z,26.95
2019-05-30T13:49:27.477Z,26.94
2019-05-30T13:50:24.851Z,26.97
2019-05-30T13:51:24.841Z,27.03
2019-05-30T13:52:24.835Z,27.19
2019-05-30T13:53:24.835Z,27.22
2019-05-30T13:54:25.149Z,27.03
2019-05-30T13:55:28.080Z,26.94
2019-05-30T13:56:24.810Z,26.87
2019-05-30T13:57:24.804Z,26.77
2019-05-30T13:58:24.796Z,26.69
2019-05-30T13:59:24.787Z,26.69
2019-05-30T14:00:24.785Z,26.75
2019-05-30T14:01:24.773Z,26.73
2019-05-30T14:02:24.771Z,26.63
2019-05-30T14:03:24.767Z,26.50
2019-05-30T14:04:24.749Z,26.39
2019-05-30T14:05:24.743Z,26.39
2019-05-30T14:06:24.734Z,26.25
2019-05-30T14:07:24.744Z,26.20
2019-05-30T14:08:24.721Z,26.20
2019-05-30T14:09:24.711Z,26.20
2019-05-30T14:10:24.704Z,26.12
2019-05-30T14:11:24.694Z,26.06
2019-05-30T14:12:24.685Z,26.18
2019-05-30T14:13:24.679Z,26.10
2019-05-30T14:14:24.674Z,26.20
2019-05-30T14:15:24.663Z,26.28
2019-05-30T14:16:24.658Z,26.43
2019-05-30T14:17:24.642Z,26.40
2019-05-30T14:18:24.637Z,26.54
2019-05-30T14:19:25.237Z,26.62
2019-05-30T14:20:24.624Z,26.55
2019-05-30T14:21:24.613Z,26.65
2019-05-30T14:22:24.618Z,26.63
2019-05-30T14:23:24.601Z,26.76
2019-05-30T14:24:24.586Z,26.75
2019-05-30T14:25:24.585Z,26.75
2019-05-30T14:26:24.575Z,26.88
2019-05-30T14:27:24.564Z,26.88
2019-05-30T14:28:24.569Z,26.81
2019-05-30T14:29:27.921Z,26.87
2019-05-30T14:30:24.539Z,26.81
2019-05-30T14:31:24.531Z,26.88
2019-05-30T14:32:24.522Z,26.87
2019-05-30T14:33:24.517Z,26.75
2019-05-30T14:34:24.513Z,26.82
2019-05-30T14:35:24.508Z,26.60
2019-05-30T14:36:24.489Z,26.50
2019-05-30T14:37:24.482Z,26.35
2019-05-30T14:38:24.473Z,26.36
2019-05-30T14:39:24.477Z,26.40
2019-05-30T14:40:24.459Z,26.25
2019-05-30T14:41:24.446Z,26.21
2019-05-30T14:42:24.441Z,26.21
2019-05-30T14:43:24.429Z,26.02
2019-05-30T14:44:25.869Z,25.88
2019-05-30T14:45:27.739Z,25.79
2019-05-30T14:46:24.410Z,25.65
2019-05-30T14:47:24.392Z,25.58
2019-05-30T14:48:24.388Z,25.61
2019-05-30T14:49:24.383Z,25.60
2019-05-30T14:50:24.367Z,25.58
2019-05-30T14:51:24.360Z,25.57
2019-05-30T14:52:24.354Z,25.40
2019-05-30T14:53:24.348Z,25.45
2019-05-30T14:54:24.335Z,25.42
2019-05-30T14:55:24.324Z,25.42
2019-05-30T14:56:24.316Z,25.30
2019-05-30T14:57:24.347Z,25.33
2019-05-30T14:58:24.300Z,25.18
2019-05-30T14:59:24.296Z,25.20
2019-05-30T15:00:24.277Z,25.18
2019-05-30T15:02:24.263Z,25.17
2019-05-30T15:05:21.808Z,24.95
2019-05-30T15:06:21.831Z,24.90
2019-05-30T15:07:21.782Z,25.02
2019-05-30T15:08:21.783Z,25.02
2019-05-30T15:09:25.927Z,25.05
2019-05-30T15:10:21.760Z,24.96
2019-05-30T15:11:21.767Z,25.08
2019-05-30T15:12:21.740Z,24.90
2019-05-30T15:13:21.732Z,24.96
2019-05-30T15:14:21.722Z,24.91
2019-05-30T15:15:21.713Z,24.91
2019-05-30T15:16:21.705Z,24.84
2019-05-30T15:17:21.711Z,24.87
2019-05-30T15:18:21.687Z,24.85
2019-05-30T15:19:21.673Z,24.91
2019-05-30T15:20:21.660Z,24.83
2019-05-30T15:21:21.654Z,24.81
2019-05-30T15:22:21.641Z,24.85
2019-05-30T15:23:21.638Z,24.88
2019-05-30T15:24:21.624Z,24.87